createdAt,value
2018-12-30T00:00:22.973Z,35.57
2018-12-30T00:03:04.038Z,35.73
2018-12-30T00:05:46.027Z,34.13
2018-12-30T00:08:27.362Z,35.73
2018-12-30T00:11:07.340Z,35.33
2018-12-30T00:13:55.935Z,36.20
2018-12-30T00:16:37.391Z,35.33
2018-12-30T00:19:18.485Z,36.73
2018-12-30T00:22:00.370Z,35.90
2018-12-30T00:24:42.102Z,37.10
2018-12-30T00:27:22.742Z,38.87
2018-12-30T00:30:04.461Z,37.33
2018-12-30T00:32:46.419Z,36.33
2018-12-30T00:35:27.555Z,37.80
2018-12-30T00:38:08.628Z,36.80
2018-12-30T00:40:49.535Z,36.97
2018-12-30T00:43:31.542Z,36.03
2018-12-30T00:46:13.253Z,34.90
2018-12-30T00:48:54.882Z,34.00
2018-12-30T00:51:34.863Z,34.73
2018-12-30T00:54:16.221Z,32.70
2018-12-30T00:56:57.535Z,32.63
2018-12-30T00:59:39.096Z,30.37
2018-12-30T01:02:20.382Z,32.57
2018-12-30T01:05:01.979Z,31.87
2018-12-30T01:07:43.483Z,29.23
2018-12-30T01:10:25.271Z,32.17
2018-12-30T01:13:06.620Z,30.43
2018-12-30T01:15:48.659Z,30.23
2018-12-30T01:18:30.319Z,28.87
2018-12-30T01:21:11.062Z,28.73
2018-12-30T01:23:52.151Z,28.17
2018-12-30T01:26:31.904Z,26.90
2018-12-30T01:29:20.787Z,26.37
2018-12-30T01:32:02.371Z,27.63
2018-12-30T01:34:43.748Z,27.57
2018-12-30T01:37:25.797Z,25.97
2018-12-30T01:40:07.215Z,25.90
2018-12-30T01:42:49.005Z,24.67
2018-12-30T01:45:30.221Z,25.13
2018-12-30T01:48:11.420Z,24.37
2018-12-30T01:50:53.493Z,25.77
2018-12-30T01:53:34.459Z,25.30
2018-12-30T01:56:15.345Z,28.03
2018-12-30T01:58:57.151Z,26.27
2018-12-30T02:01:38.853Z,24.03
2018-12-30T02:04:20.175Z,24.93
2018-12-30T02:07:00.851Z,24.60
2018-12-30T02:09:42.255Z,24.23
2018-12-30T02:12:23.163Z,23.03
2018-12-30T02:15:04.331Z,22.83
2018-12-30T02:17:45.303Z,22.27
2018-12-30T02:20:25.175Z,21.80
2018-12-30T02:23:13.432Z,22.07
2018-12-30T02:25:54.776Z,22.27
2018-12-30T02:28:35.799Z,21.53
2018-12-30T02:31:16.604Z,21.33
2018-12-30T02:33:56.498Z,22.13
2018-12-30T02:36:38.395Z,22.17
2018-12-30T02:39:18.323Z,22.13
2018-12-30T02:42:07.325Z,20.37
2018-12-30T02:44:48.432Z,21.30
2018-12-30T02:47:29.921Z,21.47
2018-12-30T02:50:11.044Z,21.57
2018-12-30T02:52:51.033Z,21.40
2018-12-30T02:55:33.058Z,22.40
2018-12-30T02:58:14.349Z,21.73
2018-12-30T03:00:55.136Z,21.03
2018-12-30T03:03:36.729Z,22.30
2018-12-30T03:06:18.499Z,23.13
2018-12-30T03:08:59.892Z,22.60
2018-12-30T03:11:41.313Z,21.50
2018-12-30T03:14:22.167Z,23.13
2018-12-30T03:17:03.324Z,22.57
2018-12-30T03:19:44.089Z,19.73
2018-12-30T03:22:23.878Z,20.33
2018-12-30T03:25:12.427Z,19.57
2018-12-30T03:27:53.764Z,19.37
2018-12-30T03:30:34.853Z,19.27
2018-12-30T03:33:15.616Z,19.43
2018-12-30T03:35:56.938Z,17.43
2018-12-30T03:38:37.143Z,19.97
2018-12-30T03:41:17.933Z,18.53
2018-12-30T03:43:58.589Z,18.53
2018-12-30T03:46:39.502Z,19.80
2018-12-30T03:49:20.673Z,18.00
2018-12-30T03:52:08.404Z,18.57
2018-12-30T03:54:44.847Z,18.83
2018-12-30T03:57:26.375Z,17.73
2018-12-30T04:00:06.603Z,16.50
2018-12-30T04:05:48.208Z,17.13
2018-12-30T04:08:29.209Z,17.77
2018-12-30T04:11:10.293Z,18.40
2018-12-30T04:13:52.153Z,19.07
2018-12-30T04:16:33.553Z,18.90
2018-12-30T04:19:14.374Z,21.77
2018-12-30T04:21:54.841Z,24.30
2018-12-30T04:24:36.007Z,22.97
2018-12-30T04:27:17.322Z,23.57
2018-12-30T04:29:58.592Z,23.80
2018-12-30T04:32:39.764Z,18.37
2018-12-30T04:35:20.944Z,18.80
2018-12-30T04:38:02.050Z,18.33
2018-12-30T04:40:43.481Z,20.90
2018-12-30T04:43:24.359Z,17.90
2018-12-30T04:46:06.170Z,19.00
2018-12-30T04:48:47.523Z,19.33
2018-12-30T04:51:29.149Z,17.73
2018-12-30T04:54:11.049Z,19.20
2018-12-30T04:56:52.528Z,16.43
2018-12-30T04:59:34.167Z,15.90
2018-12-30T05:02:15.806Z,17.33
2018-12-30T05:04:55.637Z,16.93
2018-12-30T05:10:37.385Z,18.37
2018-12-30T05:13:18.460Z,17.00
2018-12-30T05:15:59.030Z,17.03
2018-12-30T05:18:40.711Z,16.67
2018-12-30T05:21:22.347Z,15.27
2018-12-30T05:24:03.927Z,16.13
2018-12-30T05:26:45.517Z,15.83
2018-12-30T05:29:27.175Z,15.90
2018-12-30T05:32:08.826Z,14.90
2018-12-30T05:34:49.916Z,15.93
2018-12-30T05:37:30.962Z,15.50
2018-12-30T05:40:10.816Z,14.97
2018-12-30T05:42:59.456Z,15.73
2018-12-30T05:45:38.731Z,15.67
2018-12-30T05:48:27.007Z,16.47
2018-12-30T05:51:08.460Z,16.97
2018-12-30T05:53:50.142Z,14.87
2018-12-30T05:56:32.004Z,16.80
2018-12-30T05:59:13.144Z,15.53
2018-12-30T06:01:52.731Z,16.57
2018-12-30T06:04:41.019Z,15.27
2018-12-30T06:07:22.168Z,16.93
2018-12-30T06:10:02.983Z,16.50
2018-12-30T06:12:44.593Z,17.30
2018-12-30T06:15:26.095Z,18.90
2018-12-30T06:18:05.640Z,21.40
2018-12-30T06:20:46.275Z,22.43
2018-12-30T06:23:27.965Z,22.13
2018-12-30T06:26:09.095Z,23.93
2018-12-30T06:28:49.902Z,24.60
2018-12-30T06:31:30.706Z,26.30
2018-12-30T06:34:12.232Z,25.73
2018-12-30T06:36:53.814Z,25.77
2018-12-30T06:39:33.593Z,24.13
2018-12-30T06:42:14.184Z,23.03
2018-12-30T06:44:55.061Z,23.60
2018-12-30T06:47:36.182Z,25.37
2018-12-30T06:50:17.433Z,24.40
2018-12-30T06:52:58.280Z,24.27
2018-12-30T06:55:40.208Z,24.27
2018-12-30T06:58:21.920Z,23.90
2018-12-30T07:01:03.953Z,22.97
2018-12-30T07:03:44.436Z,21.97
2018-12-30T07:06:25.749Z,22.73
2018-12-30T07:09:07.399Z,23.73
2018-12-30T07:11:47.107Z,22.10
2018-12-30T07:14:28.701Z,20.63
2018-12-30T07:17:10.225Z,21.20
2018-12-30T07:19:52.001Z,20.13
2018-12-30T07:22:33.476Z,18.00
2018-12-30T07:25:14.972Z,20.20
2018-12-30T07:27:55.631Z,19.30
2018-12-30T07:30:36.763Z,19.87
2018-12-30T07:33:18.182Z,19.50
2018-12-30T07:35:59.454Z,19.37
2018-12-30T07:38:40.818Z,19.17
2018-12-30T07:41:22.177Z,19.77
2018-12-30T07:44:03.816Z,19.83
2018-12-30T07:46:45.279Z,19.87
2018-12-30T07:49:26.579Z,19.90
2018-12-30T07:52:06.322Z,19.67
2018-12-30T07:54:55.273Z,19.87
2018-12-30T07:57:36.609Z,20.27
2018-12-30T08:00:17.535Z,19.63
2018-12-30T08:02:59.568Z,19.93
2018-12-30T08:05:40.677Z,18.77
2018-12-30T08:08:21.429Z,19.40
2018-12-30T08:11:02.173Z,19.17
2018-12-30T08:13:43.043Z,18.47
2018-12-30T08:16:25.015Z,18.27
2018-12-30T08:19:05.904Z,15.03
2018-12-30T08:21:46.498Z,15.93
2018-12-30T08:24:27.850Z,17.23
2018-12-30T08:27:08.850Z,16.37
2018-12-30T08:29:49.629Z,17.60
2018-12-30T08:32:29.078Z,18.13
2018-12-30T08:35:09.626Z,18.00
2018-12-30T08:37:51.105Z,18.53
2018-12-30T08:40:33.010Z,18.93
2018-12-30T08:43:14.137Z,18.00
2018-12-30T08:45:54.448Z,17.80
2018-12-30T08:48:35.716Z,19.00
2018-12-30T08:51:16.243Z,18.57
2018-12-30T08:53:57.360Z,18.10
2018-12-30T08:56:38.311Z,17.43
2018-12-30T08:59:19.692Z,18.27
2018-12-30T09:02:01.174Z,19.40
2018-12-30T09:04:42.480Z,19.27
2018-12-30T09:07:24.179Z,18.73
2018-12-30T09:10:05.769Z,21.30
2018-12-30T09:12:47.237Z,22.37
2018-12-30T09:15:28.247Z,23.03
2018-12-30T09:18:07.864Z,23.43
2018-12-30T09:20:48.778Z,23.60
2018-12-30T09:23:37.063Z,24.13
2018-12-30T09:26:13.310Z,25.83
2018-12-30T09:28:54.039Z,24.97
2018-12-30T09:31:35.401Z,26.23
2018-12-30T09:34:17.298Z,28.37
2018-12-30T09:36:57.966Z,28.90
2018-12-30T09:39:39.037Z,28.00
2018-12-30T09:42:18.651Z,27.27
2018-12-30T09:45:00.236Z,26.10
2018-12-30T09:47:41.676Z,25.50
2018-12-30T09:50:23.220Z,25.00
2018-12-30T09:53:04.437Z,23.23
2018-12-30T09:55:46.601Z,32.37
2018-12-30T09:58:28.998Z,25.70
2018-12-30T10:01:10.364Z,28.87
2018-12-30T10:03:52.255Z,28.60
2018-12-30T10:06:33.733Z,28.27
2018-12-30T10:09:15.094Z,26.67
2018-12-30T10:11:55.908Z,25.50
2018-12-30T10:14:36.777Z,23.87
2018-12-30T10:17:18.295Z,28.50
2018-12-30T10:19:57.630Z,28.00
2018-12-30T10:22:38.750Z,31.03
2018-12-30T10:25:20.001Z,26.63
2018-12-30T10:28:01.674Z,28.87
2018-12-30T10:30:42.584Z,28.33
2018-12-30T10:33:21.934Z,29.80
2018-12-30T10:36:10.577Z,27.87
2018-12-30T10:38:50.532Z,23.30
2018-12-30T10:41:32.235Z,22.63
2018-12-30T10:44:13.414Z,22.70
2018-12-30T10:46:54.894Z,26.03
2018-12-30T10:49:35.690Z,25.87
2018-12-30T10:52:16.332Z,26.17
2018-12-30T10:54:57.556Z,25.97
2018-12-30T10:57:39.169Z,24.20
2018-12-30T11:00:20.677Z,24.43
2018-12-30T11:03:02.640Z,24.97
2018-12-30T11:05:44.169Z,30.10
2018-12-30T11:08:26.017Z,33.87
2018-12-30T11:11:06.642Z,33.90
2018-12-30T11:13:48.149Z,35.47
2018-12-30T11:16:27.725Z,31.20
2018-12-30T11:19:09.474Z,34.33
2018-12-30T11:21:48.998Z,32.40
2018-12-30T11:24:37.762Z,35.70
2018-12-30T11:27:19.315Z,33.30
2018-12-30T11:29:59.006Z,34.43
2018-12-30T11:32:40.043Z,39.47
2018-12-30T11:35:20.676Z,37.80
2018-12-30T11:38:01.698Z,30.00
2018-12-30T11:40:43.476Z,37.03
2018-12-30T11:43:24.887Z,32.30
2018-12-30T11:46:05.975Z,30.13
2018-12-30T11:48:46.882Z,31.97
2018-12-30T11:51:28.463Z,27.00
2018-12-30T11:54:16.262Z,29.67
2018-12-30T11:56:51.396Z,31.17
2018-12-30T11:59:32.925Z,30.97
2018-12-30T12:02:13.746Z,27.67
2018-12-30T12:04:54.311Z,30.00
2018-12-30T12:07:34.788Z,33.40
2018-12-30T12:10:15.310Z,33.23
2018-12-30T12:12:56.014Z,38.63
2018-12-30T12:15:38.364Z,33.07
2018-12-30T12:18:19.529Z,35.43
2018-12-30T12:21:01.223Z,33.03
2018-12-30T12:23:42.188Z,36.43
2018-12-30T12:26:23.672Z,35.23
2018-12-30T12:29:05.034Z,28.87
2018-12-30T12:31:46.532Z,31.97
2018-12-30T12:34:27.881Z,32.20
2018-12-30T12:37:09.140Z,30.10
2018-12-30T12:39:50.195Z,31.20
2018-12-30T12:42:31.289Z,24.80
2018-12-30T12:45:12.911Z,27.87
2018-12-30T12:47:53.547Z,29.40
2018-12-30T12:50:35.740Z,26.33
2018-12-30T12:53:16.816Z,29.67
2018-12-30T12:55:58.119Z,30.80
2018-12-30T12:58:39.166Z,28.47
2018-12-30T13:01:20.476Z,29.30
2018-12-30T13:04:01.853Z,27.77
2018-12-30T13:06:43.568Z,28.93
2018-12-30T13:09:25.295Z,29.67
2018-12-30T13:12:07.171Z,26.53
2018-12-30T13:14:48.096Z,27.57
2018-12-30T13:17:29.476Z,31.47
2018-12-30T13:20:11.227Z,36.97
2018-12-30T13:22:52.829Z,32.73
2018-12-30T13:25:34.200Z,31.97
2018-12-30T13:28:15.553Z,34.00
2018-12-30T13:30:57.135Z,30.67
2018-12-30T13:33:37.917Z,31.87
2018-12-30T13:36:19.174Z,36.60
2018-12-30T13:39:01.075Z,30.07
2018-12-30T13:41:42.853Z,30.73
2018-12-30T13:44:23.782Z,33.93
2018-12-30T13:47:04.954Z,31.57
2018-12-30T13:49:46.771Z,32.67
2018-12-30T13:52:26.541Z,33.57
2018-12-30T13:55:15.628Z,40.17
2018-12-30T13:57:55.438Z,40.10
2018-12-30T14:00:44.400Z,32.33
2018-12-30T14:03:25.752Z,30.03
2018-12-30T14:06:07.498Z,33.53
2018-12-30T14:08:49.152Z,31.60
2018-12-30T14:11:30.842Z,32.83
2018-12-30T14:14:12.471Z,32.23
2018-12-30T14:16:54.209Z,27.93
2018-12-30T14:19:35.943Z,23.27
2018-12-30T14:22:15.645Z,21.67
2018-12-30T14:24:57.294Z,24.03
2018-12-30T14:27:39.015Z,28.23
2018-12-30T14:30:20.876Z,30.33
2018-12-30T14:33:02.614Z,31.03
2018-12-30T14:35:44.355Z,30.17
2018-12-30T14:38:25.551Z,30.83
2018-12-30T14:41:07.445Z,27.33
2018-12-30T14:43:48.830Z,27.33
2018-12-30T14:46:34.824Z,25.30
2018-12-30T14:49:12.332Z,21.97
2018-12-30T14:51:54.045Z,23.63
2018-12-30T14:54:35.565Z,23.90
2018-12-30T14:57:16.557Z,22.23
2018-12-30T14:59:57.573Z,24.07
2018-12-30T15:02:38.890Z,26.33
2018-12-30T15:05:20.285Z,24.73
2018-12-30T15:08:01.256Z,23.20
2018-12-30T15:10:42.124Z,25.93
2018-12-30T15:13:23.034Z,25.00
2018-12-30T15:16:04.732Z,16.80
2018-12-30T15:18:46.271Z,8.30
2018-12-30T15:21:28.168Z,8.17
2018-12-30T15:24:09.537Z,7.33
2018-12-30T15:26:51.094Z,6.77
2018-12-30T15:29:33.427Z,4.73
2018-12-30T15:32:14.184Z,5.17
2018-12-30T15:34:55.987Z,5.40
2018-12-30T15:37:37.338Z,6.03
2018-12-30T15:40:19.032Z,6.00
2018-12-30T15:43:00.078Z,6.40
2018-12-30T15:45:41.665Z,6.63
2018-12-30T15:48:22.577Z,7.93
2018-12-30T15:51:03.492Z,8.83
2018-12-30T15:53:45.520Z,9.20
2018-12-30T15:56:27.212Z,11.20
2018-12-30T15:59:08.689Z,6.57
2018-12-30T16:01:48.175Z,8.00
2018-12-30T16:04:29.309Z,7.40
2018-12-30T16:07:10.120Z,6.77
2018-12-30T16:09:50.834Z,7.27
2018-12-30T16:12:31.727Z,7.47
2018-12-30T16:15:12.290Z,9.03
2018-12-30T16:17:53.671Z,10.80
2018-12-30T16:20:34.493Z,8.27
2018-12-30T16:23:16.249Z,7.57
2018-12-30T16:25:57.772Z,8.23
2018-12-30T16:28:39.217Z,8.03
2018-12-30T16:31:27.861Z,11.40
2018-12-30T16:34:03.271Z,7.80
2018-12-30T16:36:43.925Z,8.20
2018-12-30T16:39:25.489Z,7.97
2018-12-30T16:42:06.256Z,9.20
2018-12-30T16:44:47.913Z,10.03
2018-12-30T16:47:29.151Z,11.13
2018-12-30T16:50:09.925Z,18.03
2018-12-30T16:52:51.449Z,11.10
2018-12-30T16:55:34.949Z,10.77
2018-12-30T16:58:15.821Z,9.47
2018-12-30T17:00:57.711Z,11.47
2018-12-30T17:03:38.963Z,10.33
2018-12-30T17:06:20.532Z,9.83
2018-12-30T17:09:01.204Z,47.27
2018-12-30T17:11:42.117Z,16.27
2018-12-30T17:14:23.247Z,10.47
2018-12-30T17:17:06.408Z,10.80
2018-12-30T17:19:47.444Z,9.80
2018-12-30T17:22:28.776Z,9.83
2018-12-30T17:25:10.342Z,9.43
2018-12-30T17:27:51.817Z,10.73
2018-12-30T17:30:32.751Z,12.80
2018-12-30T17:33:12.541Z,14.00
2018-12-30T17:35:53.844Z,13.73
2018-12-30T17:38:35.088Z,13.47
2018-12-30T17:41:16.514Z,15.40
2018-12-30T17:43:58.056Z,13.93
2018-12-30T17:46:39.319Z,12.50
2018-12-30T17:49:20.645Z,15.03
2018-12-30T17:52:01.931Z,14.37
2018-12-30T17:54:41.828Z,13.43
2018-12-30T17:57:30.813Z,12.30
2018-12-30T18:00:12.111Z,10.10
2018-12-30T18:02:54.660Z,11.77
2018-12-30T18:05:36.227Z,12.20
2018-12-30T18:08:17.946Z,10.43
2018-12-30T18:10:59.666Z,8.07
2018-12-30T18:13:40.939Z,8.40
2018-12-30T18:16:22.663Z,7.87
2018-12-30T18:19:02.472Z,8.00
2018-12-30T18:21:44.429Z,7.40
2018-12-30T18:24:25.604Z,7.67
2018-12-30T18:27:05.560Z,7.50
2018-12-30T18:29:54.195Z,8.23
2018-12-30T18:32:35.654Z,8.33
2018-12-30T18:35:16.323Z,9.50
2018-12-30T18:37:57.682Z,9.03
2018-12-30T18:40:39.155Z,10.03
2018-12-30T18:43:21.360Z,10.27
2018-12-30T18:46:02.811Z,9.80
2018-12-30T18:48:44.348Z,9.67
2018-12-30T18:51:26.479Z,9.53
2018-12-30T18:54:07.779Z,10.07
2018-12-30T18:56:49.510Z,11.90
2018-12-30T18:59:30.494Z,12.73
2018-12-30T19:02:12.206Z,10.07
2018-12-30T19:04:53.795Z,8.47
2018-12-30T19:07:33.506Z,9.97
2018-12-30T19:10:22.195Z,8.83
2018-12-30T19:13:03.944Z,10.07
2018-12-30T19:15:45.662Z,10.43
2018-12-30T19:18:26.896Z,10.07
2018-12-30T19:21:07.722Z,10.30
2018-12-30T19:23:49.337Z,8.33
2018-12-30T19:26:31.334Z,8.00
2018-12-30T19:29:12.839Z,8.03
2018-12-30T19:31:52.352Z,8.40
2018-12-30T19:34:33.120Z,7.70
2018-12-30T19:37:15.056Z,6.73
2018-12-30T19:39:55.911Z,5.73
2018-12-30T19:42:37.373Z,6.27
2018-12-30T19:45:19.119Z,5.40
2018-12-30T19:48:00.691Z,6.17
2018-12-30T19:50:41.909Z,6.20
2018-12-30T19:53:23.197Z,6.27
2018-12-30T19:56:05.012Z,8.00
2018-12-30T19:58:46.463Z,7.37
2018-12-30T20:01:27.295Z,7.57
2018-12-30T20:04:08.943Z,7.80
2018-12-30T20:06:49.914Z,8.43
2018-12-30T20:09:31.352Z,9.00
2018-12-30T20:12:12.419Z,7.70
2018-12-30T20:14:53.710Z,9.03
2018-12-30T20:17:34.762Z,9.90
2018-12-30T20:20:16.411Z,10.07
2018-12-30T20:22:57.164Z,8.90
2018-12-30T20:25:38.443Z,9.80
2018-12-30T20:28:19.909Z,10.17
2018-12-30T20:31:01.444Z,10.63
2018-12-30T20:33:42.287Z,10.60
2018-12-30T20:36:23.472Z,10.27
2018-12-30T20:39:05.292Z,9.93
2018-12-30T20:41:46.590Z,11.67
2018-12-30T20:44:27.456Z,10.80
2018-12-30T20:47:09.177Z,11.07
2018-12-30T20:49:50.857Z,10.77
2018-12-30T20:52:32.163Z,14.23
2018-12-30T20:55:13.674Z,9.80
2018-12-30T20:57:54.636Z,10.90
2018-12-30T21:00:36.198Z,11.27
2018-12-30T21:03:17.036Z,10.23
2018-12-30T21:05:58.256Z,8.77
2018-12-30T21:08:37.822Z,9.30
2018-12-30T21:14:18.472Z,8.07
2018-12-30T21:17:00.149Z,8.13
2018-12-30T21:19:41.938Z,8.10
2018-12-30T21:22:23.094Z,8.57
2018-12-30T21:25:03.813Z,8.63
2018-12-30T21:27:45.613Z,7.80
2018-12-30T21:30:26.958Z,8.47
2018-12-30T21:33:07.466Z,8.77
2018-12-30T21:35:48.419Z,7.90
2018-12-30T21:38:29.511Z,9.17
2018-12-30T21:41:10.913Z,8.27
2018-12-30T21:43:52.343Z,7.97
2018-12-30T21:46:33.250Z,9.10
2018-12-30T21:49:12.869Z,8.77
2018-12-30T21:52:01.166Z,8.93
2018-12-30T21:54:42.402Z,9.20
2018-12-30T21:57:23.622Z,8.73
2018-12-30T22:00:04.513Z,9.47
2018-12-30T22:02:46.466Z,8.73
2018-12-30T22:05:27.430Z,9.40
2018-12-30T22:08:08.210Z,9.47
2018-12-30T22:10:49.477Z,10.37
2018-12-30T22:13:30.618Z,9.47
2018-12-30T22:16:12.325Z,8.50
2018-12-30T22:18:53.470Z,8.03
2018-12-30T22:21:34.805Z,9.53
2018-12-30T22:24:16.627Z,10.10
2018-12-30T22:26:57.270Z,9.60
2018-12-30T22:29:37.140Z,8.57
2018-12-30T22:32:18.736Z,8.60
2018-12-30T22:35:00.207Z,8.83
2018-12-30T22:37:40.756Z,9.27
2018-12-30T22:40:22.245Z,8.07
2018-12-30T22:43:04.125Z,7.93
2018-12-30T22:45:45.824Z,10.83
2018-12-30T22:48:27.376Z,8.23
2018-12-30T22:51:08.531Z,10.10
2018-12-30T22:53:49.487Z,8.23
2018-12-30T22:56:31.324Z,10.97
2018-12-30T22:59:13.026Z,9.03
2018-12-30T23:01:54.212Z,9.60
2018-12-30T23:04:35.824Z,7.53
2018-12-30T23:07:17.984Z,6.83
2018-12-30T23:09:59.513Z,7.07
2018-12-30T23:12:41.208Z,8.37
2018-12-30T23:15:20.844Z,6.83
2018-12-30T23:18:01.607Z,7.23
2018-12-30T23:20:42.921Z,6.27
2018-12-30T23:23:31.636Z,6.87
2018-12-30T23:26:12.764Z,6.73
2018-12-30T23:28:54.380Z,7.10
2018-12-30T23:31:35.956Z,7.00
2018-12-30T23:34:17.328Z,6.37
2018-12-30T23:36:58.579Z,5.73
2018-12-30T23:39:39.375Z,5.97
2018-12-30T23:42:20.880Z,6.73
2018-12-30T23:45:00.827Z,6.83
2018-12-30T23:47:41.926Z,6.33
2018-12-30T23:50:23.662Z,6.53
2018-12-30T23:53:04.853Z,6.50
2018-12-30T23:55:46.348Z,5.70
2018-12-30T23:58:27.525Z,5.57
